sensor_id;sensor_type;location;lat;lon;timestamp;P1;durP1;ratioP1;P2;durP2;ratioP2
16326;SDS011;34812;49.846;9.610;2023-05-10T00:00:37;3.57;;;3.30;;
16326;SDS011;34812;49.846;9.610;2023-05-10T00:01:38;3.63;;;3.33;;
16326;SDS011;34812;49.846;9.610;2023-05-10T00:02:40;3.40;;;3.20;;
16326;SDS011;34812;49.846;9.610;2023-05-10T00:03:41;3.80;;;3.50;;
16326;SDS011;34812;49.846;9.610;2023-05-10T00:04:42;4.10;;;3.73;;
16326;SDS011;34812;49.846;9.610;2023-05-10T00:05:43;4.63;;;3.83;;
16326;SDS011;34812;49.846;9.610;2023-05-10T00:06:45;4.23;;;3.90;;
16326;SDS011;34812;49.846;9.610;2023-05-10T00:07:46;3.93;;;3.63;;
16326;SDS011;34812;49.846;9.610;2023-05-10T00:08:48;3.63;;;3.33;;
16326;SDS011;34812;49.846;9.610;2023-05-10T00:09:48;3.10;;;2.90;;
16326;SDS011;34812;49.846;9.610;2023-05-10T00:10:50;3.60;;;3.30;;
16326;SDS011;34812;49.846;9.610;2023-05-10T00:11:51;5.90;;;3.60;;
16326;SDS011;34812;49.846;9.610;2023-05-10T00:12:52;5.87;;;3.73;;
16326;SDS011;34812;49.846;9.610;2023-05-10T00:13:53;4.70;;;3.50;;
16326;SDS011;34812;49.846;9.610;2023-05-10T00:14:56;3.70;;;3.37;;
16326;SDS011;34812;49.846;9.610;2023-05-10T00:15:57;3.27;;;2.97;;
16326;SDS011;34812;49.846;9.610;2023-05-10T00:16:59;3.73;;;3.43;;
16326;SDS011;34812;49.846;9.610;2023-05-10T00:18:00;3.30;;;3.10;;
16326;SDS011;34812;49.846;9.610;2023-05-10T00:19:02;3.77;;;3.33;;
16326;SDS011;34812;49.846;9.610;2023-05-10T00:20:03;3.60;;;3.17;;
16326;SDS011;34812;49.846;9.610;2023-05-10T00:21:05;3.47;;;3.17;;
16326;SDS011;34812;49.846;9.610;2023-05-10T00:22:06;3.30;;;3.10;;
16326;SDS011;34812;49.846;9.610;2023-05-10T00:23:08;3.80;;;3.50;;
16326;SDS011;34812;49.846;9.610;2023-05-10T00:24:09;3.70;;;3.30;;
16326;SDS011;34812;49.846;9.610;2023-05-10T00:25:10;3.97;;;3.37;;
16326;SDS011;34812;49.846;9.610;2023-05-10T00:26:11;5.07;;;3.23;;
16326;SDS011;34812;49.846;9.610;2023-05-10T00:27:16;3.57;;;3.30;;
16326;SDS011;34812;49.846;9.610;2023-05-10T00:28:17;3.40;;;3.10;;
16326;SDS011;34812;49.846;9.610;2023-05-10T00:29:18;3.60;;;3.23;;
16326;SDS011;34812;49.846;9.610;2023-05-10T00:30:21;3.30;;;3.03;;
16326;SDS011;34812;49.846;9.610;2023-05-10T00:31:23;3.50;;;3.20;;
16326;SDS011;34812;49.846;9.610;2023-05-10T00:32:24;3.60;;;3.23;;
16326;SDS011;34812;49.846;9.610;2023-05-10T00:33:26;3.30;;;3.10;;
16326;SDS011;34812;49.846;9.610;2023-05-10T00:34:27;4.07;;;3.23;;
16326;SDS011;34812;49.846;9.610;2023-05-10T00:35:28;3.13;;;2.93;;
16326;SDS011;34812;49.846;9.610;2023-05-10T00:36:29;3.97;;;3.63;;
16326;SDS011;34812;49.846;9.610;2023-05-10T00:37:31;3.70;;;3.40;;
16326;SDS011;34812;49.846;9.610;2023-05-10T00:38:32;3.60;;;3.40;;
16326;SDS011;34812;49.846;9.610;2023-05-10T00:39:34;4.00;;;3.27;;
16326;SDS011;34812;49.846;9.610;2023-05-10T00:40:35;3.37;;;3.07;;
16326;SDS011;34812;49.846;9.610;2023-05-10T00:41:39;3.60;;;3.30;;
16326;SDS011;34812;49.846;9.610;2023-05-10T00:42:40;3.33;;;3.13;;
16326;SDS011;34812;49.846;9.610;2023-05-10T00:43:42;3.60;;;3.23;;
16326;SDS011;34812;49.846;9.610;2023-05-10T00:44:43;3.43;;;3.13;;
16326;SDS011;34812;49.846;9.610;2023-05-10T00:45:48;3.70;;;3.23;;
16326;SDS011;34812;49.846;9.610;2023-05-10T00:46:49;3.57;;;3.27;;
16326;SDS011;34812;49.846;9.610;2023-05-10T00:47:51;3.50;;;3.20;;
16326;SDS011;34812;49.846;9.610;2023-05-10T00:48:55;4.67;;;3.50;;
16326;SDS011;34812;49.846;9.610;2023-05-10T00:49:57;5.70;;;3.57;;
16326;SDS011;34812;49.846;9.610;2023-05-10T00:51:00;3.50;;;3.30;;
16326;SDS011;34812;49.846;9.610;2023-05-10T00:52:02;3.50;;;3.20;;
16326;SDS011;34812;49.846;9.610;2023-05-10T00:53:03;3.70;;;3.40;;
16326;SDS011;34812;49.846;9.610;2023-05-10T00:54:05;4.43;;;4.00;;
16326;SDS011;34812;49.846;9.610;2023-05-10T00:55:07;3.83;;;3.53;;
16326;SDS011;34812;49.846;9.610;2023-05-10T00:56:11;4.10;;;3.80;;
16326;SDS011;34812;49.846;9.610;2023-05-10T00:57:12;4.60;;;4.20;;
16326;SDS011;34812;49.846;9.610;2023-05-10T00:58:14;4.33;;;4.03;;
16326;SDS011;34812;49.846;9.610;2023-05-10T00:59:15;4.77;;;4.30;;
16326;SDS011;34812;49.846;9.610;2023-05-10T01:00:17;4.17;;;3.60;;
16326;SDS011;34812;49.846;9.610;2023-05-10T01:01:20;5.57;;;3.03;;
16326;SDS011;34812;49.846;9.610;2023-05-10T01:02:22;3.67;;;3.40;;
16326;SDS011;34812;49.846;9.610;2023-05-10T01:03:24;3.10;;;2.73;;
16326;SDS011;34812;49.846;9.610;2023-05-10T01:04:26;3.43;;;3.13;;
16326;SDS011;34812;49.846;9.610;2023-05-10T01:05:28;3.30;;;3.03;;
16326;SDS011;34812;49.846;9.610;2023-05-10T01:06:31;2.90;;;2.73;;
16326;SDS011;34812;49.846;9.610;2023-05-10T01:07:32;2.80;;;2.60;;
16326;SDS011;34812;49.846;9.610;2023-05-10T01:08:34;2.70;;;2.50;;
16326;SDS011;34812;49.846;9.610;2023-05-10T01:09:34;2.30;;;2.10;;
16326;SDS011;34812;49.846;9.610;2023-05-10T01:10:36;2.30;;;2.10;;
16326;SDS011;34812;49.846;9.610;2023-05-10T01:11:38;2.13;;;2.03;;
16326;SDS011;34812;49.846;9.610;2023-05-10T01:12:40;2.40;;;2.03;;
16326;SDS011;34812;49.846;9.610;2023-05-10T01:13:46;1.80;;;1.70;;
16326;SDS011;34812;49.846;9.610;2023-05-10T01:14:53;2.63;;;1.83;;
16326;SDS011;34812;49.846;9.610;2023-05-10T01:15:54;2.30;;;1.57;;
16326;SDS011;34812;49.846;9.610;2023-05-10T01:16:58;2.90;;;1.83;;
16326;SDS011;34812;49.846;9.610;2023-05-10T01:18:00;2.70;;;1.73;;
16326;SDS011;34812;49.846;9.610;2023-05-10T01:19:03;2.37;;;1.60;;
16326;SDS011;34812;49.846;9.610;2023-05-10T01:20:07;1.60;;;1.50;;
16326;SDS011;34812;49.846;9.610;2023-05-10T01:21:14;1.43;;;1.43;;
16326;SDS011;34812;49.846;9.610;2023-05-10T01:22:33;1.37;;;1.30;;
16326;SDS011;34812;49.846;9.610;2023-05-10T01:23:59;2.30;;;1.50;;
16326;SDS011;34812;49.846;9.610;2023-05-10T01:25:48;1.50;;;1.40;;
16326;SDS011;34812;49.846;9.610;2023-05-10T01:27:17;1.40;;;1.40;;
16326;SDS011;34812;49.846;9.610;2023-05-10T01:28:37;2.20;;;1.43;;
16326;SDS011;34812;49.846;9.610;2023-05-10T01:31:59;1.63;;;1.40;;
16326;SDS011;34812;49.846;9.610;2023-05-10T01:33:21;1.10;;;1.10;;
16326;SDS011;34812;49.846;9.610;2023-05-10T01:34:30;1.30;;;1.30;;
16326;SDS011;34812;49.846;9.610;2023-05-10T01:35:37;1.50;;;1.40;;
16326;SDS011;34812;49.846;9.610;2023-05-10T01:36:43;1.50;;;1.40;;
16326;SDS011;34812;49.846;9.610;2023-05-10T01:37:50;2.13;;;1.53;;
16326;SDS011;34812;49.846;9.610;2023-05-10T01:38:59;1.77;;;1.40;;
16326;SDS011;34812;49.846;9.610;2023-05-10T01:40:08;1.37;;;1.27;;
16326;SDS011;34812;49.846;9.610;2023-05-10T01:41:17;1.57;;;1.30;;
16326;SDS011;34812;49.846;9.610;2023-05-10T01:42:23;1.30;;;1.20;;
16326;SDS011;34812;49.846;9.610;2023-05-10T01:43:32;1.33;;;1.20;;
16326;SDS011;34812;49.846;9.610;2023-05-10T01:44:42;1.20;;;1.10;;
16326;SDS011;34812;49.846;9.610;2023-05-10T01:45:50;1.80;;;1.60;;
16326;SDS011;34812;49.846;9.610;2023-05-10T01:47:04;1.73;;;1.27;;
16326;SDS011;34812;49.846;9.610;2023-05-10T01:48:10;1.27;;;1.20;;
16326;SDS011;34812;49.846;9.610;2023-05-10T01:49:15;1.10;;;1.10;;
16326;SDS011;34812;49.846;9.610;2023-05-10T01:50:22;1.20;;;1.20;;
16326;SDS011;34812;49.846;9.610;2023-05-10T01:51:29;2.90;;;1.43;;
16326;SDS011;34812;49.846;9.610;2023-05-10T01:52:38;1.00;;;1.00;;
16326;SDS011;34812;49.846;9.610;2023-05-10T01:53:44;0.90;;;0.90;;
16326;SDS011;34812;49.846;9.610;2023-05-10T01:54:49;1.00;;;1.00;;
16326;SDS011;34812;49.846;9.610;2023-05-10T01:55:56;1.20;;;1.20;;
16326;SDS011;34812;49.846;9.610;2023-05-10T01:57:00;2.10;;;1.20;;
16326;SDS011;34812;49.846;9.610;2023-05-10T01:58:06;1.20;;;1.20;;
16326;SDS011;34812;49.846;9.610;2023-05-10T01:59:11;1.60;;;1.00;;
16326;SDS011;34812;49.846;9.610;2023-05-10T02:00:15;0.93;;;0.93;;
16326;SDS011;34812;49.846;9.610;2023-05-10T02:01:17;0.97;;;0.97;;
16326;SDS011;34812;49.846;9.610;2023-05-10T02:02:22;1.00;;;1.00;;
16326;SDS011;34812;49.846;9.610;2023-05-10T02:03:27;1.10;;;1.10;;
16326;SDS011;34812;49.846;9.610;2023-05-10T02:04:30;1.10;;;1.10;;
16326;SDS011;34812;49.846;9.610;2023-05-10T02:05:33;1.43;;;1.37;;
16326;SDS011;34812;49.846;9.610;2023-05-10T02:06:35;1.30;;;1.20;;
16326;SDS011;34812;49.846;9.610;2023-05-10T02:07:39;1.30;;;1.30;;
16326;SDS011;34812;49.846;9.610;2023-05-10T02:08:42;2.60;;;1.30;;
16326;SDS011;34812;49.846;9.610;2023-05-10T02:09:46;1.50;;;1.40;;
16326;SDS011;34812;49.846;9.610;2023-05-10T02:10:49;1.63;;;1.37;;
16326;SDS011;34812;49.846;9.610;2023-05-10T02:11:53;1.20;;;1.20;;
16326;SDS011;34812;49.846;9.610;2023-05-10T02:12:55;1.70;;;1.60;;
16326;SDS011;34812;49.846;9.610;2023-05-10T02:14:00;1.30;;;1.20;;
16326;SDS011;34812;49.846;9.610;2023-05-10T02:15:04;1.63;;;1.07;;
16326;SDS011;34812;49.846;9.610;2023-05-10T02:16:08;1.30;;;1.20;;
16326;SDS011;34812;49.846;9.610;2023-05-10T02:17:09;1.40;;;1.37;;
16326;SDS011;34812;49.846;9.610;2023-05-10T02:18:12;1.10;;;1.10;;
16326;SDS011;34812;49.846;9.610;2023-05-10T02:19:14;1.27;;;1.20;;
16326;SDS011;34812;49.846;9.610;2023-05-10T02:20:17;1.23;;;1.10;;
16326;SDS011;34812;49.846;9.610;2023-05-10T02:21:20;1.03;;;1.03;;
16326;SDS011;34812;49.846;9.610;2023-05-10T02:22:23;4.87;;;1.20;;
16326;SDS011;34812;49.846;9.610;2023-05-10T02:23:26;1.00;;;0.90;;
16326;SDS011;34812;49.846;9.610;2023-05-10T02:24:29;1.00;;;1.00;;
16326;SDS011;34812;49.846;9.610;2023-05-10T02:25:33;1.07;;;1.07;;
16326;SDS011;34812;49.846;9.610;2023-05-10T02:26:36;2.47;;;1.10;;
16326;SDS011;34812;49.846;9.610;2023-05-10T02:27:38;1.47;;;1.10;;
16326;SDS011;34812;49.846;9.610;2023-05-10T02:28:43;1.20;;;1.10;;
16326;SDS011;34812;49.846;9.610;2023-05-10T02:29:45;3.83;;;1.00;;
16326;SDS011;34812;49.846;9.610;2023-05-10T02:30:49;1.10;;;1.10;;
16326;SDS011;34812;49.846;9.610;2023-05-10T02:31:51;1.40;;;0.90;;
16326;SDS011;34812;49.846;9.610;2023-05-10T02:32:55;1.00;;;1.00;;
16326;SDS011;34812;49.846;9.610;2023-05-10T02:33:59;1.17;;;1.10;;
16326;SDS011;34812;49.846;9.610;2023-05-10T02:35:02;2.43;;;1.27;;
16326;SDS011;34812;49.846;9.610;2023-05-10T02:36:05;0.90;;;0.90;;
16326;SDS011;34812;49.846;9.610;2023-05-10T02:37:10;1.20;;;1.10;;
16326;SDS011;34812;49.846;9.610;2023-05-10T02:38:12;1.60;;;1.13;;
16326;SDS011;34812;49.846;9.610;2023-05-10T02:39:15;0.97;;;0.97;;
16326;SDS011;34812;49.846;9.610;2023-05-10T02:40:18;1.00;;;1.00;;
16326;SDS011;34812;49.846;9.610;2023-05-10T02:41:22;1.00;;;1.00;;
16326;SDS011;34812;49.846;9.610;2023-05-10T02:42:26;1.20;;;1.10;;
16326;SDS011;34812;49.846;9.610;2023-05-10T02:43:30;0.90;;;0.90;;
16326;SDS011;34812;49.846;9.610;2023-05-10T02:44:33;0.93;;;0.93;;
16326;SDS011;34812;49.846;9.610;2023-05-10T02:45:37;1.80;;;1.13;;
16326;SDS011;34812;49.846;9.610;2023-05-10T02:46:40;1.20;;;1.10;;
16326;SDS011;34812;49.846;9.610;2023-05-10T02:47:42;0.87;;;0.87;;
16326;SDS011;34812;49.846;9.610;2023-05-10T02:48:43;1.10;;;1.00;;
16326;SDS011;34812;49.846;9.610;2023-05-10T02:49:47;1.47;;;1.13;;
16326;SDS011;34812;49.846;9.610;2023-05-10T02:50:48;1.33;;;1.23;;
16326;SDS011;34812;49.846;9.610;2023-05-10T02:51:56;1.20;;;1.20;;
16326;SDS011;34812;49.846;9.610;2023-05-10T02:53:00;1.10;;;1.10;;
16326;SDS011;34812;49.846;9.610;2023-05-10T02:54:09;1.10;;;1.00;;
16326;SDS011;34812;49.846;9.610;2023-05-10T02:55:13;1.10;;;1.07;;
16326;SDS011;34812;49.846;9.610;2023-05-10T02:56:19;3.70;;;1.20;;
16326;SDS011;34812;49.846;9.610;2023-05-10T02:57:26;1.00;;;0.90;;
16326;SDS011;34812;49.846;9.610;2023-05-10T02:58:32;1.00;;;1.00;;
16326;SDS011;34812;49.846;9.610;2023-05-10T02:59:33;2.30;;;1.30;;
16326;SDS011;34812;49.846;9.610;2023-05-10T03:00:35;2.10;;;1.20;;
16326;SDS011;34812;49.846;9.610;2023-05-10T03:01:36;1.00;;;0.97;;
16326;SDS011;34812;49.846;9.610;2023-05-10T03:02:38;1.93;;;1.20;;
16326;SDS011;34812;49.846;9.610;2023-05-10T03:03:39;1.10;;;1.10;;
16326;SDS011;34812;49.846;9.610;2023-05-10T03:04:41;1.13;;;1.13;;
16326;SDS011;34812;49.846;9.610;2023-05-10T03:05:43;1.07;;;1.07;;
16326;SDS011;34812;49.846;9.610;2023-05-10T03:06:45;1.07;;;1.07;;
16326;SDS011;34812;49.846;9.610;2023-05-10T03:07:46;2.00;;;1.20;;
16326;SDS011;34812;49.846;9.610;2023-05-10T03:08:49;1.10;;;1.10;;
16326;SDS011;34812;49.846;9.610;2023-05-10T03:09:50;1.00;;;1.00;;
16326;SDS011;34812;49.846;9.610;2023-05-10T03:10:55;1.30;;;0.90;;
16326;SDS011;34812;49.846;9.610;2023-05-10T03:12:07;1.30;;;1.20;;
16326;SDS011;34812;49.846;9.610;2023-05-10T03:13:16;1.43;;;1.30;;
16326;SDS011;34812;49.846;9.610;2023-05-10T03:14:28;1.07;;;0.90;;
16326;SDS011;34812;49.846;9.610;2023-05-10T03:15:40;1.10;;;1.10;;
16326;SDS011;34812;49.846;9.610;2023-05-10T03:16:52;1.07;;;1.00;;
16326;SDS011;34812;49.846;9.610;2023-05-10T03:18:04;3.37;;;1.07;;
16326;SDS011;34812;49.846;9.610;2023-05-10T03:19:12;1.40;;;1.30;;
16326;SDS011;34812;49.846;9.610;2023-05-10T03:20:20;1.10;;;1.10;;
16326;SDS011;34812;49.846;9.610;2023-05-10T03:21:26;1.00;;;1.00;;
16326;SDS011;34812;49.846;9.610;2023-05-10T03:22:34;1.30;;;1.20;;
16326;SDS011;34812;49.846;9.610;2023-05-10T03:23:40;1.23;;;1.13;;
16326;SDS011;34812;49.846;9.610;2023-05-10T03:24:44;1.80;;;1.00;;
16326;SDS011;34812;49.846;9.610;2023-05-10T03:25:46;1.10;;;1.10;;
16326;SDS011;34812;49.846;9.610;2023-05-10T03:26:50;1.10;;;1.10;;
16326;SDS011;34812;49.846;9.610;2023-05-10T03:27:56;1.13;;;1.13;;
16326;SDS011;34812;49.846;9.610;2023-05-10T03:28:59;1.93;;;1.20;;
16326;SDS011;34812;49.846;9.610;2023-05-10T03:30:01;1.67;;;1.00;;
16326;SDS011;34812;49.846;9.610;2023-05-10T03:31:06;2.43;;;1.10;;
16326;SDS011;34812;49.846;9.610;2023-05-10T03:32:08;1.30;;;1.20;;
16326;SDS011;34812;49.846;9.610;2023-05-10T03:33:10;2.10;;;1.40;;
16326;SDS011;34812;49.846;9.610;2023-05-10T03:34:14;1.00;;;1.00;;
16326;SDS011;34812;49.846;9.610;2023-05-10T03:35:16;1.00;;;0.90;;
16326;SDS011;34812;49.846;9.610;2023-05-10T03:36:17;4.47;;;1.03;;
16326;SDS011;34812;49.846;9.610;2023-05-10T03:37:21;1.20;;;1.20;;
16326;SDS011;34812;49.846;9.610;2023-05-10T03:38:22;1.10;;;1.10;;
16326;SDS011;34812;49.846;9.610;2023-05-10T03:39:24;2.50;;;1.00;;
16326;SDS011;34812;49.846;9.610;2023-05-10T03:40:29;1.00;;;1.00;;
16326;SDS011;34812;49.846;9.610;2023-05-10T03:41:32;1.03;;;0.90;;
16326;SDS011;34812;49.846;9.610;2023-05-10T03:42:32;1.23;;;1.03;;
16326;SDS011;34812;49.846;9.610;2023-05-10T03:43:34;2.30;;;1.20;;
16326;SDS011;34812;49.846;9.610;2023-05-10T03:44:35;3.73;;;1.40;;
16326;SDS011;34812;49.846;9.610;2023-05-10T03:45:37;1.90;;;1.00;;
16326;SDS011;34812;49.846;9.610;2023-05-10T03:46:38;3.27;;;1.27;;
16326;SDS011;34812;49.846;9.610;2023-05-10T03:47:39;1.73;;;1.00;;
16326;SDS011;34812;49.846;9.610;2023-05-10T03:48:40;1.20;;;1.10;;
16326;SDS011;34812;49.846;9.610;2023-05-10T03:49:42;1.30;;;1.20;;
16326;SDS011;34812;49.846;9.610;2023-05-10T03:50:43;1.20;;;1.10;;
16326;SDS011;34812;49.846;9.610;2023-05-10T03:51:45;1.03;;;1.03;;
16326;SDS011;34812;49.846;9.610;2023-05-10T03:52:47;1.43;;;1.00;;
16326;SDS011;34812;49.846;9.610;2023-05-10T03:53:49;1.10;;;1.00;;
16326;SDS011;34812;49.846;9.610;2023-05-10T03:54:50;2.07;;;1.13;;
16326;SDS011;34812;49.846;9.610;2023-05-10T03:55:52;3.07;;;1.10;;
16326;SDS011;34812;49.846;9.610;2023-05-10T03:56:53;1.20;;;0.97;;
16326;SDS011;34812;49.846;9.610;2023-05-10T03:57:55;1.20;;;1.10;;
16326;SDS011;34812;49.846;9.610;2023-05-10T03:58:57;1.20;;;1.10;;
16326;SDS011;34812;49.846;9.610;2023-05-10T03:59:58;1.00;;;1.00;;
16326;SDS011;34812;49.846;9.610;2023-05-10T04:00:59;0.90;;;0.90;;
16326;SDS011;34812;49.846;9.610;2023-05-10T04:02:01;1.50;;;1.40;;
16326;SDS011;34812;49.846;9.610;2023-05-10T04:03:03;1.47;;;1.20;;
16326;SDS011;34812;49.846;9.610;2023-05-10T04:04:05;1.13;;;1.13;;
16326;SDS011;34812;49.846;9.610;2023-05-10T04:05:06;1.80;;;1.20;;
16326;SDS011;34812;49.846;9.610;2023-05-10T04:06:09;1.80;;;1.20;;
16326;SDS011;34812;49.846;9.610;2023-05-10T04:07:11;1.73;;;1.20;;
16326;SDS011;34812;49.846;9.610;2023-05-10T04:08:15;3.07;;;1.17;;
16326;SDS011;34812;49.846;9.610;2023-05-10T04:09:16;1.20;;;1.20;;
16326;SDS011;34812;49.846;9.610;2023-05-10T04:10:18;2.60;;;0.93;;
16326;SDS011;34812;49.846;9.610;2023-05-10T04:11:19;0.90;;;0.90;;
16326;SDS011;34812;49.846;9.610;2023-05-10T04:12:21;1.00;;;1.00;;
16326;SDS011;34812;49.846;9.610;2023-05-10T04:13:22;3.87;;;1.10;;
16326;SDS011;34812;49.846;9.610;2023-05-10T04:14:24;1.33;;;1.00;;
16326;SDS011;34812;49.846;9.610;2023-05-10T04:15:25;1.70;;;1.10;;
16326;SDS011;34812;49.846;9.610;2023-05-10T04:16:26;0.90;;;0.90;;
16326;SDS011;34812;49.846;9.610;2023-05-10T04:17:27;0.90;;;0.90;;
16326;SDS011;34812;49.846;9.610;2023-05-10T04:18:29;0.90;;;0.90;;
16326;SDS011;34812;49.846;9.610;2023-05-10T04:19:30;1.27;;;1.10;;
16326;SDS011;34812;49.846;9.610;2023-05-10T04:20:32;1.53;;;1.07;;
16326;SDS011;34812;49.846;9.610;2023-05-10T04:21:33;1.77;;;1.17;;
16326;SDS011;34812;49.846;9.610;2023-05-10T04:22:35;1.37;;;1.27;;
16326;SDS011;34812;49.846;9.610;2023-05-10T04:23:37;1.23;;;1.10;;
16326;SDS011;34812;49.846;9.610;2023-05-10T04:24:38;2.00;;;0.90;;
16326;SDS011;34812;49.846;9.610;2023-05-10T04:25:39;1.73;;;1.10;;
16326;SDS011;34812;49.846;9.610;2023-05-10T04:26:41;1.67;;;1.10;;
16326;SDS011;34812;49.846;9.610;2023-05-10T04:27:42;1.17;;;1.10;;
16326;SDS011;34812;49.846;9.610;2023-05-10T04:28:44;0.97;;;0.90;;
16326;SDS011;34812;49.846;9.610;2023-05-10T04:29:45;2.27;;;1.30;;
16326;SDS011;34812;49.846;9.610;2023-05-10T04:30:46;1.20;;;1.20;;
16326;SDS011;34812;49.846;9.610;2023-05-10T04:31:47;3.00;;;1.13;;
16326;SDS011;34812;49.846;9.610;2023-05-10T04:32:49;2.00;;;1.13;;
16326;SDS011;34812;49.846;9.610;2023-05-10T04:33:50;1.07;;;1.03;;
16326;SDS011;34812;49.846;9.610;2023-05-10T04:34:52;1.90;;;1.00;;
16326;SDS011;34812;49.846;9.610;2023-05-10T04:35:53;2.80;;;1.10;;
16326;SDS011;34812;49.846;9.610;2023-05-10T04:36:54;1.10;;;1.10;;
16326;SDS011;34812;49.846;9.610;2023-05-10T04:37:55;1.10;;;1.00;;
16326;SDS011;34812;49.846;9.610;2023-05-10T04:38:58;1.37;;;1.03;;
16326;SDS011;34812;49.846;9.610;2023-05-10T04:39:59;1.00;;;1.00;;
16326;SDS011;34812;49.846;9.610;2023-05-10T04:41:04;1.13;;;1.13;;
16326;SDS011;34812;49.846;9.610;2023-05-10T04:42:05;1.30;;;1.20;;
16326;SDS011;34812;49.846;9.610;2023-05-10T04:43:07;1.20;;;1.10;;
16326;SDS011;34812;49.846;9.610;2023-05-10T04:44:08;1.20;;;1.00;;
16326;SDS011;34812;49.846;9.610;2023-05-10T04:45:10;1.00;;;1.00;;
16326;SDS011;34812;49.846;9.610;2023-05-10T04:46:11;2.77;;;1.20;;
16326;SDS011;34812;49.846;9.610;2023-05-10T04:47:12;1.20;;;1.10;;
16326;SDS011;34812;49.846;9.610;2023-05-10T04:48:13;0.90;;;0.90;;
16326;SDS011;34812;49.846;9.610;2023-05-10T04:49:15;3.87;;;1.20;;
16326;SDS011;34812;49.846;9.610;2023-05-10T04:50:16;4.57;;;1.20;;
16326;SDS011;34812;49.846;9.610;2023-05-10T04:51:18;1.00;;;1.00;;
16326;SDS011;34812;49.846;9.610;2023-05-10T04:52:20;1.13;;;1.13;;
16326;SDS011;34812;49.846;9.610;2023-05-10T04:53:22;1.23;;;1.20;;
16326;SDS011;34812;49.846;9.610;2023-05-10T04:54:24;2.40;;;1.30;;
16326;SDS011;34812;49.846;9.610;2023-05-10T04:55:26;1.00;;;1.00;;
16326;SDS011;34812;49.846;9.610;2023-05-10T04:56:27;1.67;;;1.10;;
16326;SDS011;34812;49.846;9.610;2023-05-10T04:57:29;4.20;;;1.20;;
16326;SDS011;34812;49.846;9.610;2023-05-10T04:58:30;1.47;;;1.20;;
16326;SDS011;34812;49.846;9.610;2023-05-10T04:59:32;1.50;;;1.10;;
16326;SDS011;34812;49.846;9.610;2023-05-10T05:00:34;1.53;;;1.10;;
16326;SDS011;34812;49.846;9.610;2023-05-10T05:01:35;3.10;;;1.33;;
16326;SDS011;34812;49.846;9.610;2023-05-10T05:02:37;1.40;;;1.30;;
16326;SDS011;34812;49.846;9.610;2023-05-10T05:03:37;1.60;;;1.50;;
16326;SDS011;34812;49.846;9.610;2023-05-10T05:04:39;1.30;;;1.20;;
16326;SDS011;34812;49.846;9.610;2023-05-10T05:05:40;1.30;;;1.20;;
16326;SDS011;34812;49.846;9.610;2023-05-10T05:06:42;2.63;;;1.47;;
16326;SDS011;34812;49.846;9.610;2023-05-10T05:07:43;1.40;;;1.30;;
16326;SDS011;34812;49.846;9.610;2023-05-10T05:08:45;1.57;;;1.10;;
16326;SDS011;34812;49.846;9.610;2023-05-10T05:09:47;2.10;;;1.33;;
16326;SDS011;34812;49.846;9.610;2023-05-10T05:10:49;1.33;;;1.13;;
16326;SDS011;34812;49.846;9.610;2023-05-10T05:11:50;2.40;;;1.30;;
16326;SDS011;34812;49.846;9.610;2023-05-10T05:12:52;2.20;;;1.30;;
16326;SDS011;34812;49.846;9.610;2023-05-10T05:13:53;1.43;;;1.33;;
16326;SDS011;34812;49.846;9.610;2023-05-10T05:14:54;1.37;;;1.27;;
16326;SDS011;34812;49.846;9.610;2023-05-10T05:15:56;2.20;;;1.47;;
16326;SDS011;34812;49.846;9.610;2023-05-10T05:16:57;1.20;;;1.10;;
16326;SDS011;34812;49.846;9.610;2023-05-10T05:17:59;1.63;;;1.30;;
16326;SDS011;34812;49.846;9.610;2023-05-10T05:19:00;3.90;;;1.50;;
16326;SDS011;34812;49.846;9.610;2023-05-10T05:20:01;0.93;;;0.93;;
16326;SDS011;34812;49.846;9.610;2023-05-10T05:21:12;1.30;;;1.20;;
16326;SDS011;34812;49.846;9.610;2023-05-10T05:22:15;1.20;;;1.20;;
16326;SDS011;34812;49.846;9.610;2023-05-10T05:23:17;1.73;;;1.10;;
16326;SDS011;34812;49.846;9.610;2023-05-10T05:24:18;3.63;;;1.23;;
16326;SDS011;34812;49.846;9.610;2023-05-10T05:25:22;1.23;;;1.20;;
16326;SDS011;34812;49.846;9.610;2023-05-10T05:26:22;2.70;;;1.40;;
16326;SDS011;34812;49.846;9.610;2023-05-10T05:27:24;1.80;;;1.27;;
16326;SDS011;34812;49.846;9.610;2023-05-10T05:28:27;1.30;;;1.20;;
16326;SDS011;34812;49.846;9.610;2023-05-10T05:29:33;1.30;;;1.20;;
16326;SDS011;34812;49.846;9.610;2023-05-10T05:30:33;1.63;;;1.10;;
16326;SDS011;34812;49.846;9.610;2023-05-10T05:31:35;3.40;;;1.43;;
16326;SDS011;34812;49.846;9.610;2023-05-10T05:32:36;1.13;;;1.10;;
16326;SDS011;34812;49.846;9.610;2023-05-10T05:33:38;2.73;;;2.10;;
16326;SDS011;34812;49.846;9.610;2023-05-10T05:34:38;1.30;;;1.20;;
16326;SDS011;34812;49.846;9.610;2023-05-10T05:35:40;1.97;;;1.20;;
16326;SDS011;34812;49.846;9.610;2023-05-10T05:36:42;1.33;;;1.23;;
16326;SDS011;34812;49.846;9.610;2023-05-10T05:37:44;2.43;;;1.20;;
16326;SDS011;34812;49.846;9.610;2023-05-10T05:38:45;2.27;;;1.30;;
16326;SDS011;34812;49.846;9.610;2023-05-10T05:39:47;1.20;;;1.10;;
16326;SDS011;34812;49.846;9.610;2023-05-10T05:40:49;2.40;;;1.30;;
16326;SDS011;34812;49.846;9.610;2023-05-10T05:41:51;1.60;;;1.50;;
16326;SDS011;34812;49.846;9.610;2023-05-10T05:42:52;1.27;;;1.27;;
16326;SDS011;34812;49.846;9.610;2023-05-10T05:43:53;1.13;;;1.07;;
16326;SDS011;34812;49.846;9.610;2023-05-10T05:44:54;1.10;;;1.10;;
16326;SDS011;34812;49.846;9.610;2023-05-10T05:45:56;3.43;;;1.50;;
16326;SDS011;34812;49.846;9.610;2023-05-10T05:46:57;2.80;;;1.53;;
16326;SDS011;34812;49.846;9.610;2023-05-10T05:47:59;1.40;;;1.30;;
16326;SDS011;34812;49.846;9.610;2023-05-10T05:49:01;1.47;;;1.30;;
16326;SDS011;34812;49.846;9.610;2023-05-10T05:50:02;1.47;;;1.37;;
16326;SDS011;34812;49.846;9.610;2023-05-10T05:51:04;1.43;;;1.30;;
16326;SDS011;34812;49.846;9.610;2023-05-10T05:52:04;2.07;;;1.40;;
16326;SDS011;34812;49.846;9.610;2023-05-10T05:53:06;1.27;;;1.27;;
16326;SDS011;34812;49.846;9.610;2023-05-10T05:54:08;1.80;;;1.37;;
16326;SDS011;34812;49.846;9.610;2023-05-10T05:55:09;2.30;;;1.73;;
16326;SDS011;34812;49.846;9.610;2023-05-10T05:56:12;5.17;;;1.30;;
16326;SDS011;34812;49.846;9.610;2023-05-10T05:57:13;1.53;;;1.43;;
16326;SDS011;34812;49.846;9.610;2023-05-10T05:58:14;3.90;;;1.55;;
16326;SDS011;34812;49.846;9.610;2023-05-10T05:59:16;3.17;;;1.20;;
16326;SDS011;34812;49.846;9.610;2023-05-10T06:00:17;1.40;;;1.30;;
16326;SDS011;34812;49.846;9.610;2023-05-10T06:01:19;3.17;;;1.40;;
16326;SDS011;34812;49.846;9.610;2023-05-10T06:02:20;2.50;;;1.40;;
16326;SDS011;34812;49.846;9.610;2023-05-10T06:03:22;1.53;;;1.43;;
16326;SDS011;34812;49.846;9.610;2023-05-10T06:04:24;1.53;;;1.43;;
16326;SDS011;34812;49.846;9.610;2023-05-10T06:05:24;1.47;;;1.30;;
16326;SDS011;34812;49.846;9.610;2023-05-10T06:06:26;1.87;;;1.77;;
16326;SDS011;34812;49.846;9.610;2023-05-10T06:07:27;2.67;;;1.67;;
16326;SDS011;34812;49.846;9.610;2023-05-10T06:08:29;1.47;;;1.37;;
16326;SDS011;34812;49.846;9.610;2023-05-10T06:09:30;1.63;;;1.47;;
16326;SDS011;34812;49.846;9.610;2023-05-10T06:10:32;3.63;;;1.60;;
16326;SDS011;34812;49.846;9.610;2023-05-10T06:11:34;1.43;;;1.37;;
16326;SDS011;34812;49.846;9.610;2023-05-10T06:12:36;1.67;;;1.53;;
16326;SDS011;34812;49.846;9.610;2023-05-10T06:13:37;2.37;;;1.40;;
16326;SDS011;34812;49.846;9.610;2023-05-10T06:14:39;3.00;;;1.40;;
16326;SDS011;34812;49.846;9.610;2023-05-10T06:15:40;1.57;;;1.47;;
16326;SDS011;34812;49.846;9.610;2023-05-10T06:16:42;1.73;;;1.20;;
16326;SDS011;34812;49.846;9.610;2023-05-10T06:17:42;1.63;;;1.53;;
16326;SDS011;34812;49.846;9.610;2023-05-10T06:18:44;1.70;;;1.30;;
16326;SDS011;34812;49.846;9.610;2023-05-10T06:19:45;2.17;;;1.73;;
16326;SDS011;34812;49.846;9.610;2023-05-10T06:20:47;2.37;;;1.57;;
16326;SDS011;34812;49.846;9.610;2023-05-10T06:21:49;1.40;;;1.30;;
16326;SDS011;34812;49.846;9.610;2023-05-10T06:22:51;3.10;;;1.50;;